Fairdale, Kentucky
Current Conditions -  °F | °C
As of 7:56 AM on Tuesday 21 Oct 2014 (Local Time) from KSDF Reporting Station
Broken Clouds Broken Clouds  
Wind Chill: 50°   Ceiling: 6000
Heat Index: 50°   Visibility: 10mi
Dew Point: 47°   Wind: 10mph
Humidity: 89%   Direction: 240°WSW
Pressure: 30.02"   Gusts: NA
Location:  38.1°N, 85.76°W
Report Text: KSDF 211156Z 24009KT 10SM BKN060 10/08 A3002 RMK AO2 SLP165 70012 T01000083 10128 20089 53016
Loading
Personal Weather Stations






























Interactive Weather Map
Tropical Storm Tracking
New forecast layout! Learn more

10-Day Weather Forecast

Advertisements
Track Severe Weather on mobile